Latest Weather Observations for Oodnadatta

IDS60801

Issued at 11:02 am CDT Monday 2 March 2015 (issued every 30 minutes, with the page automatically refreshed every 10 minutes)

About weather observations | Map of weather stations | Latest weather observations for SA | Other Formats
Station Details ID: 017043 Name: OODNADATTA AIRPORT Lat: -27.56 Lon: 135.45 Height: 116.5 m
Data from the previous 72 hours. | See also: Recent months at Oodnadatta
Date/Time
CDT
Temp
°C
App
Temp
°C
Dew
Point
Rel
Hum
%
Delta-T
°C
Wind Press
QNH
hPa
Press
MSL
hPa
Rain
since 9 am
mm
Dir
 
Spd
km/h
Gust
km/h
Spd
kts
Gust
kts
02/11:00am 31.5 25.8 5.1 19 14.0 E 24 32 13 17 1010.7 - 0.0
02/10:30am 30.0 24.5 3.9 19 13.4 E 22 30 12 16 1011.0 - 0.0
02/10:00am 29.3 23.3 3.3 19 13.2 E 24 30 13 16 1011.0 - 0.0
02/09:30am 27.8 22.2 3.5 21 12.2 ESE 22 28 12 15 1010.9 - 0.0
02/09:00am 25.7 21.4 3.0 23 11.2 ESE 15 20 8 11 1010.7 1010.2 0.0
02/08:30am 23.0 19.8 0.8 23 10.3 SE 7 11 4 6 1010.7 - 0.0
02/08:00am 21.4 18.7 0.0 24 9.6 S 4 7 2 4 1010.9 - 0.0
02/07:30am 20.5 16.5 0.4 26 9.0 S 11 13 6 7 1010.9 - 0.0
02/07:00am 20.5 16.9 0.4 26 9.0 S 9 11 5 6 1010.4 - 0.0
02/06:30am 20.6 16.9 -0.1 25 9.2 S 9 11 5 6 1010.2 - 0.0
02/06:00am 21.2 17.6 0.4 25 9.4 S 9 11 5 6 1010.2 1009.7 0.0
02/05:30am 21.7 17.7 0.3 24 9.7 S 11 13 6 7 1010.1 - 0.0
02/05:00am 22.4 17.7 0.9 24 9.9 S 15 17 8 9 1010.0 - 0.0
02/04:30am 22.7 18.3 0.5 23 10.2 S 13 15 7 8 1010.0 - 0.0
02/04:00am 22.5 18.5 0.4 23 10.1 SSE 11 13 6 7 1009.7 - 0.0
02/03:30am 22.8 19.6 0.6 23 10.2 SE 7 9 4 5 1009.9 - 0.0
02/03:00am 23.1 19.2 0.9 23 10.3 SE 11 13 6 7 1010.1 1009.5 0.0
02/02:30am 24.0 19.7 1.0 22 10.8 SE 13 15 7 8 1010.4 - 0.0
02/02:00am 24.9 20.2 1.1 21 11.2 SSE 15 17 8 9 1010.7 - 0.0
02/01:30am 25.5 20.9 1.6 21 11.4 SSE 15 17 8 9 1011.0 - 0.0
02/01:00am 25.8 21.2 1.8 21 11.6 SSE 15 17 8 9 1011.2 - 0.0
02/12:30am 26.3 22.2 2.3 21 11.7 SSE 13 17 7 9 1011.0 - 0.0
02/12:00am 26.9 22.5 2.7 21 11.9 S 15 17 8 9 1010.9 1010.3 0.0
 
Date/Time
CDT
Temp
°C
App
Temp
°C
Dew
Point
Rel
Hum
%
Delta-T
°C
Wind Press
QNH
hPa
Press
MSL
hPa
Rain
since 9 am
mm
Dir
 
Spd
km/h
Gust
km/h
Spd
kts
Gust
kts
01/11:30pm 27.5 23.6 3.2 21 12.1 S 13 15 7 8 1011.1 - 0.0
01/11:00pm 28.1 23.9 3.7 21 12.3 S 15 17 8 9 1011.0 - 0.0
01/10:30pm 29.0 24.4 3.8 20 12.8 S 17 20 9 11 1011.0 - 0.0
01/10:00pm 29.8 24.8 3.7 19 13.3 S 19 22 10 12 1011.0 - 0.0
01/09:30pm 30.6 25.8 4.4 19 13.6 S 19 22 10 12 1010.9 - 0.0
01/09:00pm 31.2 25.5 4.9 19 13.8 SSE 24 30 13 16 1010.3 1009.8 0.0
01/08:30pm 31.8 26.2 5.3 19 14.1 S 24 30 13 16 1009.9 - 0.0
01/08:00pm 32.1 26.3 6.3 20 13.9 S 26 30 14 16 1009.7 - 0.0
01/07:30pm 32.3 26.3 7.2 21 13.8 SSE 28 33 15 18 1009.5 - 0.0
01/06:30pm 34.1 28.7 8.0 20 14.6 SSE 26 48 14 26 1009.4 - 0.0
01/06:00pm 33.4 27.6 8.1 21 14.2 SSE 28 39 15 21 1009.2 1008.6 0.0
01/05:30pm 33.6 28.1 9.0 22 14.0 SSE 28 43 15 23 1009.3 - 0.0
01/05:00pm 33.5 28.5 9.5 23 13.7 S 26 39 14 21 1009.5 - 0.0
01/04:30pm 33.9 29.0 9.9 23 13.9 S 26 41 14 22 1009.8 - 0.0
01/04:00pm 33.5 29.2 10.8 25 13.3 SSE 24 35 13 19 1009.9 - 0.0
01/03:30pm 33.1 27.7 11.0 26 12.9 S 30 39 16 21 1010.1 - 0.0
01/03:00pm 32.9 27.3 11.4 27 12.7 SSE 32 46 17 25 1010.3 1009.8 0.0
01/02:30pm 31.4 26.1 11.2 29 11.8 S 30 44 16 24 1010.9 - 0.0
01/02:00pm 31.6 26.3 11.4 29 11.8 SSE 30 37 16 20 1011.4 - 0.0
01/01:30pm 31.4 26.2 11.7 29 11.6 SSE 30 39 16 21 1011.8 - 0.0
01/01:06pm 30.0 24.3 11.0 31 11.0 SSE 32 50 17 27 1012.1 - 0.0
01/01:00pm 29.8 23.5 10.9 31 10.9 SSE 35 43 19 23 1012.2 - 0.0
01/12:30pm 28.4 22.0 10.6 33 10.1 S 35 46 19 25 1012.3 - 0.0
01/12:00pm 28.1 21.7 10.8 34 9.9 S 35 44 19 24 1012.8 1012.2 0.0
01/11:39am 27.4 21.0 10.6 35 9.5 S 35 57 19 31 1012.8 - 0.0
01/11:30am 27.5 20.3 10.7 35 9.5 S 39 54 21 29 1012.9 - 0.0
01/11:00am 25.9 18.2 10.1 37 8.8 S 41 52 22 28 1012.8 - 0.0
01/10:30am 25.0 16.9 10.1 39 8.3 S 43 54 23 29 1012.8 - 0.0
01/10:00am 25.0 17.7 11.6 43 7.6 S 41 52 22 28 1012.8 - 0.0
01/09:30am 23.8 16.5 11.5 46 7.0 S 41 52 22 28 1012.6 - 0.0
01/09:00am 22.9 15.2 11.6 49 6.4 S 43 50 23 27 1012.2 1011.6 0.0
01/08:30am 22.6 15.4 12.0 51 6.0 S 41 52 22 28 1011.9 - 0.0
01/08:00am 22.3 16.4 12.3 53 5.7 S 35 48 19 26 1011.7 - 0.0
01/07:30am 22.3 15.5 13.1 56 5.3 S 41 52 22 28 1011.1 - 0.0
01/07:00am 22.6 15.7 13.9 58 5.1 S 43 56 23 30 1010.5 - 0.0
01/06:37am 23.0 16.3 14.6 59 5.0 S 43 61 23 33 1009.8 - 0.0
01/06:30am 23.3 17.0 14.6 58 5.2 S 41 54 22 29 1009.8 - 0.0
01/06:00am 24.0 17.3 15.0 57 5.4 S 44 57 24 31 1009.4 1008.8 0.0
01/05:30am 24.8 18.2 14.9 54 6.0 S 43 52 23 28 1009.0 - 0.0
01/05:00am 25.5 18.7 14.9 52 6.4 S 44 56 24 30 1008.5 - 0.0
01/04:30am 26.6 19.9 15.0 49 7.0 S 44 54 24 29 1008.1 - 0.0
01/04:00am 27.3 22.1 15.6 48 7.2 S 37 48 20 26 1008.0 - 0.0
01/03:30am 27.8 22.7 15.8 48 7.4 S 37 46 20 25 1008.0 - 0.0
01/03:00am 28.6 23.9 15.8 45 7.9 S 35 44 19 24 1007.8 1007.2 0.0
01/02:30am 29.2 23.7 15.7 44 8.4 S 39 52 21 28 1007.5 - 0.0
01/02:00am 30.1 24.7 15.0 40 9.3 S 37 48 20 26 1007.5 - 0.0
01/01:30am 30.6 25.1 14.7 38 9.7 S 37 56 20 30 1007.6 - 0.0
01/01:08am 31.1 25.1 14.3 36 10.3 S 39 57 21 31 1007.7 - 0.0
01/01:00am 31.3 24.4 14.4 35 10.3 S 44 57 24 31 1007.6 - 0.0
01/12:30am 32.3 25.8 14.0 33 11.2 S 41 52 22 28 1007.4 - 0.0
01/12:00am 33.0 26.9 13.1 30 12.0 S 37 50 20 27 1007.1 1006.5 0.0
 
Date/Time
CDT
Temp
°C
App
Temp
°C
Dew
Point
Rel
Hum
%
Delta-T
°C
Wind Press
QNH
hPa
Press
MSL
hPa
Rain
since 9 am
mm
Dir
 
Spd
km/h
Gust
km/h
Spd
kts
Gust
kts
28/11:48pm 33.3 27.3 13.4 30 12.1 S 37 46 20 25 1007.1 - 0.0
28/11:30pm 33.6 30.9 15.6 34 11.3 SSW 24 35 13 19 1007.0 - 0.0
28/11:00pm 33.8 30.4 13.8 30 12.2 SSW 24 32 13 17 1006.9 - 0.0
28/10:30pm 33.8 31.6 14.3 31 12.0 SSW 19 26 10 14 1006.9 - 0.0
28/10:00pm 34.1 31.4 14.6 31 12.1 SSW 22 28 12 15 1006.7 - 0.0
28/09:30pm 34.7 31.1 11.8 25 13.7 SSW 22 30 12 16 1006.5 - 0.0
28/09:00pm 35.0 30.7 9.4 21 14.8 S 22 28 12 15 1006.0 1005.2 0.0
28/08:30pm 35.3 30.3 8.2 19 15.3 S 24 30 13 16 1005.7 - 0.0
28/08:00pm 35.7 30.0 8.5 19 15.5 S 28 37 15 20 1005.4 - 0.0
28/07:30pm 36.3 29.0 7.4 17 16.2 S 35 43 19 23 1004.9 - 0.0
28/07:00pm 36.8 28.9 7.8 17 16.4 SSW 39 46 21 25 1004.7 - 0.0
28/06:30pm 37.2 29.7 8.1 17 16.6 SSW 37 48 20 26 1004.4 - 0.0
28/06:00pm 38.6 30.9 5.3 13 18.4 SW 35 54 19 29 1003.9 1003.1 0.0
28/05:57pm 38.9 32.3 4.4 12 18.8 SW 28 48 15 26 1004.1 - 0.0
28/05:30pm 39.4 34.2 2.2 10 19.6 SW 19 24 10 13 1004.2 - 0.0
28/05:00pm 39.5 34.4 0.8 9 20.0 SW 17 26 9 14 1004.2 - 0.0
28/04:30pm 39.6 34.7 2.3 10 19.7 WSW 17 24 9 13 1004.3 - 0.0
28/04:00pm 39.2 33.6 3.4 11 19.2 SSW 22 37 12 20 1004.5 - 0.0
28/03:30pm 39.6 34.9 0.9 9 20.0 WSW 15 22 8 12 1004.7 - 0.0
28/03:00pm 39.3 34.3 -1.0 8 20.3 W 15 22 8 12 1004.9 1004.1 0.0
28/02:30pm 39.1 35.1 0.5 9 19.8 WNW 11 19 6 10 1005.3 - 0.0
28/02:00pm 38.8 35.7 0.3 9 19.6 NW 6 11 3 6 1005.5 - 0.0
28/01:30pm 38.3 34.2 -0.1 9 19.4 N 11 19 6 10 1005.8 - 0.0
28/01:00pm 37.2 32.4 0.5 10 18.6 N 15 22 8 12 1006.1 - 0.0
28/12:30pm 37.6 32.3 2.1 11 18.5 N 19 35 10 19 1006.2 - 0.0
28/12:00pm 38.4 32.7 2.8 11 18.9 NNE 22 32 12 17 1006.4 1005.6 0.0
28/11:30am 35.8 30.1 3.1 13 17.1 NNE 22 28 12 15 1006.6 - 0.0
28/11:00am 34.1 28.6 3.8 15 15.9 NNE 22 28 12 15 1006.7 - 0.0
28/10:30am 33.1 27.8 4.8 17 15.0 NNE 22 30 12 16 1006.8 - 0.0
28/10:00am 32.1 27.1 4.8 18 14.4 NNE 20 24 11 13 1006.4 - 0.0
28/09:30am 31.6 26.7 5.2 19 14.0 NNE 20 28 11 15 1006.2 - 0.0
28/09:00am 30.5 28.2 5.0 20 13.4 N 6 7 3 4 1006.2 1005.4 0.0
28/08:30am 29.7 26.8 4.4 20 13.1 N 9 13 5 7 1006.2 - 0.0
28/08:00am 29.3 26.4 4.7 21 12.7 NNE 9 15 5 8 1005.8 - 0.0
28/07:30am 28.1 25.1 2.3 19 12.7 NNE 7 11 4 6 1005.4 - 0.0
28/07:00am 28.0 24.9 1.5 18 12.9 NE 7 7 4 4 1005.0 - 0.0
28/06:30am 27.5 24.4 1.1 18 12.7 NNE 7 9 4 5 1004.7 - 0.0
28/06:00am 27.4 23.9 1.0 18 12.7 N 9 13 5 7 1004.6 1003.8 0.0
28/05:30am 28.4 24.5 1.0 17 13.2 NNE 11 13 6 7 1004.4 - 0.0
28/05:00am 28.1 23.6 -0.1 16 13.3 NE 13 15 7 8 1004.2 - 0.0
28/04:30am 29.2 25.6 0.8 16 13.7 NE 9 11 5 6 1004.0 - 0.0
28/04:00am 29.9 25.5 0.5 15 14.2 NE 13 17 7 9 1003.9 - 0.0
28/03:30am 30.5 26.4 0.0 14 14.7 ENE 11 15 6 8 1004.0 - 0.0
28/03:00am 30.7 26.1 -0.8 13 15.0 ENE 13 15 7 8 1004.4 1003.6 0.0
28/02:30am 31.3 27.0 -1.5 12 15.5 ENE 11 11 6 6 1004.7 - 0.0
28/02:00am 31.8 27.0 -2.3 11 15.9 ENE 13 15 7 8 1005.0 - 0.0
28/01:30am 32.3 26.8 -1.9 11 16.1 NE 17 20 9 11 1005.1 - 0.0
28/01:00am 32.5 27.4 -1.7 11 16.2 NE 15 19 8 10 1005.1 - 0.0
28/12:30am 32.5 26.7 -1.7 11 16.2 ENE 19 22 10 12 1004.9 - 0.0
28/12:00am 32.6 26.8 -1.7 11 16.3 ENE 19 22 10 12 1005.2 1004.4 0.0
 
Date/Time
CDT
Temp
°C
App
Temp
°C
Dew
Point
Rel
Hum
%
Delta-T
°C
Wind Press
QNH
hPa
Press
MSL
hPa
Rain
since 9 am
mm
Dir
 
Spd
km/h
Gust
km/h
Spd
kts
Gust
kts
27/11:30pm 32.6 26.8 -1.7 11 16.3 ENE 19 24 10 13 1005.1 - 0.0
27/11:00pm 33.1 27.2 -2.6 10 16.8 ENE 19 22 10 12 1005.3 - 0.0
27/10:30pm 33.5 27.6 -2.3 10 16.9 ENE 19 22 10 12 1005.2 - 0.0
27/10:00pm 33.7 29.0 -2.1 10 17.0 ENE 13 15 7 8 1005.3 - 0.0
27/09:30pm 34.7 29.7 -1.4 10 17.5 E 15 19 8 10 1005.1 - 0.0
27/09:00pm 35.5 30.9 -0.8 10 17.9 ENE 13 15 7 8 1004.9 1004.1 0.0
27/08:30pm 36.1 32.2 -1.7 9 18.4 E 9 11 5 6 1004.7 - 0.0
27/08:00pm 37.2 33.8 -0.9 9 18.9 ENE 7 9 4 5 1004.5 - 0.0
27/07:30pm 37.9 33.8 -0.4 9 19.2 NE 11 17 6 9 1004.4 - 0.0
27/07:00pm 38.3 35.3 -1.7 8 19.7 N 4 7 2 4 1004.2 - 0.0
27/06:30pm 38.6 35.1 -1.5 8 19.9 N 7 13 4 7 1004.1 - 0.0
27/06:00pm 38.9 34.6 -1.3 8 20.1 N 11 19 6 10 1004.1 1003.3 0.0
27/05:30pm 38.7 35.4 -1.4 8 19.9 SW 6 9 3 5 1004.1 - 0.0
27/05:00pm 39.1 35.3 -1.1 8 20.1 NE 9 15 5 8 1004.4 - 0.0
27/04:30pm 38.8 34.9 -1.4 8 20.0 NW 9 19 5 10 1004.7 - 0.0
27/04:00pm 38.0 34.6 -1.9 8 19.6 NE 6 11 3 6 1005.0 - 0.0
27/03:30pm 38.1 34.0 -0.3 9 19.3 NE 11 22 6 12 1005.5 - 0.0
27/03:00pm 37.6 33.8 -0.6 9 19.1 ENE 9 17 5 9 1005.8 1005.0 0.0
27/02:30pm 37.5 32.9 -0.7 9 19.0 NNE 13 20 7 11 1006.3 - 0.0
27/02:00pm 37.1 32.5 -1.0 9 18.9 E 13 30 7 16 1006.8 - 0.0
27/01:30pm 37.0 32.0 -1.1 9 18.8 NNE 15 26 8 14 1007.4 - 0.0
27/01:00pm 36.4 31.9 -0.1 10 18.2 NNE 13 24 7 13 1007.6 - 0.0
27/12:30pm 36.3 31.1 -0.2 10 18.2 N 17 32 9 17 1008.2 - 0.0
27/12:00pm 35.7 30.0 -0.6 10 18.0 NE 19 32 10 17 1008.5 1007.7 0.0
27/11:30am 35.1 29.0 0.2 11 17.4 NE 22 30 12 16 1008.8 - 0.0

Other Formats:

Comma delimited format used in spreadsheet applications
http://www.bom.gov.au/fwo/IDS60801/IDS60801.94476.axf

JavaScript Object Notation format (JSON) in row-major order
http://www.bom.gov.au/fwo/IDS60801/IDS60801.94476.json